createdAt,value
2019-03-23T00:00:47.000Z,38.93
2019-03-23T00:03:16.720Z,39.00
2019-03-23T00:05:46.795Z,37.63
2019-03-23T00:08:16.552Z,37.40
2019-03-23T00:10:46.615Z,39.43
2019-03-23T00:13:16.421Z,40.27
2019-03-23T00:15:46.222Z,38.73
2019-03-23T00:18:15.840Z,41.00
2019-03-23T00:20:45.979Z,40.67
2019-03-23T00:23:15.986Z,39.27
2019-03-23T00:25:45.853Z,39.40
2019-03-23T00:28:15.539Z,39.03
2019-03-23T00:30:45.188Z,41.00
2019-03-23T00:33:14.823Z,35.50
2019-03-23T00:35:44.843Z,35.63
2019-03-23T00:38:14.578Z,40.50
2019-03-23T00:40:44.209Z,40.90
2019-03-23T00:43:13.849Z,35.60
2019-03-23T00:45:43.484Z,44.23
2019-03-23T00:48:13.155Z,38.30
2019-03-23T00:50:42.787Z,39.23
2019-03-23T00:53:12.422Z,41.07
2019-03-23T00:55:42.109Z,38.30
2019-03-23T00:58:11.822Z,41.77
2019-03-23T01:00:41.625Z,41.73
2019-03-23T01:03:11.334Z,44.07
2019-03-23T01:05:40.969Z,36.97
2019-03-23T01:08:10.684Z,43.70
2019-03-23T01:10:40.281Z,38.53
2019-03-23T01:13:10.140Z,40.23
2019-03-23T01:15:39.855Z,42.13
2019-03-23T01:18:09.663Z,39.20
2019-03-23T01:20:49.293Z,40.17
2019-03-23T01:23:10.782Z,42.43
2019-03-23T01:25:40.426Z,41.27
2019-03-23T01:28:10.209Z,41.93
2019-03-23T01:30:39.913Z,41.10
2019-03-23T01:33:09.542Z,41.50
2019-03-23T01:35:39.226Z,41.33
2019-03-23T01:38:08.889Z,41.53
2019-03-23T01:40:38.535Z,43.13
2019-03-23T01:43:08.209Z,40.00
2019-03-23T01:45:37.822Z,39.43
2019-03-23T01:48:07.528Z,41.07
2019-03-23T01:50:37.169Z,38.80
2019-03-23T01:53:06.876Z,42.23
2019-03-23T01:55:36.879Z,45.13
2019-03-23T01:58:06.895Z,39.70
2019-03-23T02:00:36.591Z,39.90
2019-03-23T02:03:06.321Z,43.60
2019-03-23T02:05:36.022Z,41.90
2019-03-23T02:08:05.974Z,39.27
2019-03-23T02:10:35.667Z,38.13
2019-03-23T02:13:05.431Z,39.47
2019-03-23T02:15:35.141Z,39.50
2019-03-23T02:18:04.881Z,41.17
2019-03-23T02:20:34.619Z,40.57
2019-03-23T02:23:04.298Z,42.60
2019-03-23T02:25:34.043Z,38.90
2019-03-23T02:28:03.809Z,41.33
2019-03-23T02:30:33.568Z,44.10
2019-03-23T02:33:03.249Z,38.00
2019-03-23T02:35:32.923Z,41.37
2019-03-23T02:38:02.624Z,40.70
2019-03-23T02:40:32.258Z,41.90
2019-03-23T02:43:01.903Z,38.30
2019-03-23T02:45:31.691Z,41.23
2019-03-23T02:48:01.343Z,37.07
2019-03-23T02:50:31.010Z,37.33
2019-03-23T02:53:00.648Z,38.43
2019-03-23T02:55:30.280Z,40.63
2019-03-23T02:58:00.243Z,36.00
2019-03-23T03:00:29.949Z,38.43
2019-03-23T03:02:59.624Z,36.57
2019-03-23T03:05:29.235Z,36.87
2019-03-23T03:07:58.878Z,39.37
2019-03-23T03:10:37.168Z,38.07
2019-03-23T03:13:07.160Z,38.97
2019-03-23T03:15:36.931Z,40.40
2019-03-23T03:18:07.479Z,38.30
2019-03-23T03:20:37.450Z,40.00
2019-03-23T03:23:07.158Z,38.20
2019-03-23T03:25:36.882Z,40.50
2019-03-23T03:28:06.640Z,40.43
2019-03-23T03:30:36.744Z,36.70
2019-03-23T03:33:06.421Z,41.10
2019-03-23T03:35:36.152Z,37.70
2019-03-23T03:38:05.767Z,35.67
2019-03-23T03:40:35.486Z,34.10
2019-03-23T03:43:05.566Z,37.30
2019-03-23T03:45:35.688Z,38.87
2019-03-23T03:48:05.697Z,38.20
2019-03-23T03:50:35.379Z,39.00
2019-03-23T03:53:05.316Z,39.77
2019-03-23T03:55:35.457Z,37.07
2019-03-23T03:58:05.089Z,36.10
2019-03-23T04:00:37.766Z,37.87
2019-03-23T04:03:07.413Z,40.00
2019-03-23T04:05:37.068Z,37.90
2019-03-23T04:08:11.668Z,38.40
2019-03-23T04:10:38.047Z,35.43
2019-03-23T04:13:07.749Z,36.73
2019-03-23T04:15:37.440Z,34.03
2019-03-23T04:18:07.178Z,34.43
2019-03-23T04:20:36.881Z,32.60
2019-03-23T04:23:06.554Z,34.87
2019-03-23T04:25:36.459Z,33.90
2019-03-23T04:28:06.268Z,33.40
2019-03-23T04:30:35.967Z,31.50
2019-03-23T04:33:05.707Z,35.90
2019-03-23T04:35:35.311Z,33.80
2019-03-23T04:38:05.105Z,32.97
2019-03-23T04:40:34.715Z,32.63
2019-03-23T04:43:04.436Z,32.60
2019-03-23T04:45:34.161Z,32.80
2019-03-23T04:48:03.847Z,33.17
2019-03-23T04:50:33.554Z,35.73
2019-03-23T04:53:03.198Z,31.20
2019-03-23T04:55:32.933Z,37.50
2019-03-23T04:58:02.886Z,32.60
2019-03-23T05:00:32.570Z,31.20
2019-03-23T05:03:02.316Z,31.07
2019-03-23T05:05:32.230Z,32.90
2019-03-23T05:08:21.491Z,28.63
2019-03-23T05:10:51.236Z,32.73
2019-03-23T05:13:22.473Z,31.07
2019-03-23T05:15:52.112Z,32.07
2019-03-23T05:18:21.779Z,29.93
2019-03-23T05:20:51.789Z,26.30
2019-03-23T05:23:21.794Z,29.33
2019-03-23T05:25:51.477Z,28.87
2019-03-23T05:28:21.140Z,29.33
2019-03-23T05:30:50.760Z,28.27
2019-03-23T05:33:20.431Z,27.80
2019-03-23T05:35:50.075Z,29.80
2019-03-23T05:38:20.055Z,29.70
2019-03-23T05:40:49.695Z,27.27
2019-03-23T05:43:19.316Z,30.50
2019-03-23T05:45:49.091Z,24.10
2019-03-23T05:48:21.523Z,27.43
2019-03-23T05:50:51.260Z,28.00
2019-03-23T05:53:20.955Z,28.73
2019-03-23T05:55:50.999Z,26.90
2019-03-23T05:58:21.019Z,26.97
2019-03-23T06:00:50.662Z,30.07
2019-03-23T06:03:20.350Z,27.60
2019-03-23T06:05:50.007Z,26.07
2019-03-23T06:08:19.734Z,23.80
2019-03-23T06:10:49.385Z,26.00
2019-03-23T06:13:19.034Z,26.00
2019-03-23T06:15:48.810Z,24.90
2019-03-23T06:18:18.460Z,28.93
2019-03-23T06:20:48.180Z,26.20
2019-03-23T06:23:17.830Z,25.10
2019-03-23T06:25:47.504Z,23.33
2019-03-23T06:28:17.356Z,24.50
2019-03-23T06:30:47.005Z,26.20
2019-03-23T06:33:16.668Z,22.63
2019-03-23T06:35:46.274Z,23.90
2019-03-23T06:38:16.421Z,25.50
2019-03-23T06:40:46.188Z,21.20
2019-03-23T06:43:15.831Z,24.30
2019-03-23T06:45:45.556Z,24.23
2019-03-23T06:48:15.507Z,23.80
2019-03-23T06:50:45.527Z,24.97
2019-03-23T06:53:15.233Z,24.80
2019-03-23T06:55:45.085Z,24.10
2019-03-23T06:58:14.697Z,25.47
2019-03-23T07:00:44.773Z,23.60
2019-03-23T07:03:14.395Z,24.70
2019-03-23T07:05:44.189Z,22.83
2019-03-23T07:08:13.809Z,21.13
2019-03-23T07:10:43.609Z,20.20
2019-03-23T07:13:13.219Z,23.63
2019-03-23T07:15:43.287Z,24.03
2019-03-23T07:18:12.928Z,25.53
2019-03-23T07:20:42.648Z,25.53
2019-03-23T07:23:12.254Z,24.33
2019-03-23T07:25:42.049Z,23.60
2019-03-23T07:28:11.702Z,23.43
2019-03-23T07:30:41.376Z,23.23
2019-03-23T07:33:11.131Z,25.43
2019-03-23T07:35:40.775Z,24.50
2019-03-23T07:38:10.581Z,24.33
2019-03-23T07:40:41.764Z,21.80
2019-03-23T07:43:11.598Z,23.40
2019-03-23T07:48:29.252Z,24.17
2019-03-23T07:51:00.729Z,18.70
2019-03-23T07:52:26.365Z,19.37
2019-03-23T07:53:31.872Z,19.87
2019-03-23T07:56:04.047Z,20.33
2019-03-23T07:58:35.502Z,25.80
2019-03-23T08:01:05.730Z,33.57
2019-03-23T08:03:42.543Z,22.07
2019-03-23T08:08:58.297Z,24.20
2019-03-23T08:09:37.616Z,23.03
2019-03-23T08:11:29.780Z,22.50
2019-03-23T08:14:02.506Z,25.90
2019-03-23T08:16:32.297Z,22.70
2019-03-23T08:19:02.397Z,22.07
2019-03-23T08:21:32.270Z,22.90
2019-03-23T08:24:10.626Z,26.33
2019-03-23T08:26:37.242Z,23.97
2019-03-23T08:29:08.643Z,26.80
2019-03-23T08:31:38.479Z,20.03
2019-03-23T08:34:08.250Z,22.10
2019-03-23T08:36:38.025Z,15.83
2019-03-23T08:39:08.262Z,16.67
2019-03-23T08:41:38.751Z,15.27
2019-03-23T08:44:08.577Z,14.03
2019-03-23T08:46:38.630Z,17.43
2019-03-23T08:49:08.443Z,15.60
2019-03-23T08:51:38.200Z,14.90
2019-03-23T08:54:12.054Z,17.23
2019-03-23T08:56:41.836Z,14.47
2019-03-23T08:59:11.671Z,19.83
2019-03-23T09:01:41.511Z,15.20
2019-03-23T09:04:11.251Z,16.23
2019-03-23T09:06:41.008Z,15.27
2019-03-23T09:09:10.843Z,14.60
2019-03-23T09:11:40.854Z,15.20
2019-03-23T09:14:10.576Z,13.47
2019-03-23T09:16:40.677Z,15.20
2019-03-23T09:19:10.462Z,20.33
2019-03-23T09:21:40.591Z,17.70
2019-03-23T09:24:10.304Z,18.70
2019-03-23T09:26:40.090Z,14.67
2019-03-23T09:29:09.872Z,16.73
2019-03-23T09:31:39.691Z,12.00
2019-03-23T09:34:09.515Z,10.33
2019-03-23T09:36:41.315Z,13.20
2019-03-23T09:39:11.007Z,10.67
2019-03-23T09:41:40.777Z,12.43
2019-03-23T09:44:10.668Z,11.20
2019-03-23T09:46:40.464Z,10.53
2019-03-23T09:49:10.695Z,10.80
2019-03-23T09:51:40.477Z,10.77
2019-03-23T09:54:10.301Z,8.37
2019-03-23T09:56:40.047Z,10.93
2019-03-23T09:59:10.012Z,10.30
2019-03-23T10:01:39.794Z,9.57
2019-03-23T10:04:09.523Z,8.90
2019-03-23T10:06:39.265Z,8.40
2019-03-23T10:09:09.107Z,9.80
2019-03-23T10:11:39.250Z,8.03
2019-03-23T10:14:09.258Z,9.43
2019-03-23T10:16:39.115Z,9.10
2019-03-23T10:19:09.176Z,8.90
2019-03-23T10:21:38.991Z,8.40
2019-03-23T10:24:08.895Z,9.20
2019-03-23T10:26:38.988Z,10.50
2019-03-23T10:29:08.749Z,9.80
2019-03-23T10:31:38.674Z,10.07
2019-03-23T10:34:09.449Z,8.17
2019-03-23T10:36:39.315Z,8.77
2019-03-23T10:39:09.335Z,7.77
2019-03-23T10:41:39.413Z,8.33
2019-03-23T10:44:09.278Z,8.07
2019-03-23T10:46:38.971Z,7.70
2019-03-23T10:49:08.786Z,7.67
2019-03-23T10:51:38.550Z,7.60
2019-03-23T10:54:08.313Z,7.40
2019-03-23T10:56:38.019Z,7.80
2019-03-23T10:59:08.303Z,7.50
2019-03-23T11:01:38.881Z,7.60
2019-03-23T11:04:08.740Z,6.90
2019-03-23T11:06:38.496Z,6.83
2019-03-23T11:09:08.391Z,7.17
2019-03-23T11:11:38.089Z,7.27
2019-03-23T11:14:08.047Z,7.40
2019-03-23T11:16:37.825Z,6.33
2019-03-23T11:19:13.435Z,6.67
2019-03-23T11:21:39.448Z,7.40
2019-03-23T11:24:09.468Z,6.60
2019-03-23T11:26:39.314Z,7.43
2019-03-23T11:29:09.453Z,15.30
2019-03-23T11:31:39.239Z,17.73
2019-03-23T11:34:17.594Z,14.07
2019-03-23T11:36:40.658Z,11.53
2019-03-23T11:39:10.359Z,9.37
2019-03-23T11:41:40.204Z,9.93
2019-03-23T11:44:11.874Z,8.57
2019-03-23T11:46:41.696Z,8.90
2019-03-23T11:49:11.387Z,11.67
2019-03-23T11:51:41.158Z,6.90
2019-03-23T11:54:10.858Z,7.43
2019-03-23T11:56:40.714Z,7.23
2019-03-23T11:59:10.442Z,7.87
2019-03-23T12:01:40.248Z,7.37
2019-03-23T12:04:09.990Z,9.40
2019-03-23T12:06:40.082Z,6.97
2019-03-23T12:09:09.835Z,7.00
2019-03-23T12:11:39.465Z,7.17
2019-03-23T12:14:09.209Z,6.67
2019-03-23T12:16:39.013Z,6.50
2019-03-23T12:19:12.485Z,6.67
2019-03-23T12:21:42.648Z,7.23
2019-03-23T12:24:12.364Z,7.67
2019-03-23T12:26:42.057Z,8.00
2019-03-23T12:29:11.857Z,6.80
2019-03-23T12:31:41.487Z,8.40
2019-03-23T12:34:11.501Z,7.27
2019-03-23T12:36:41.459Z,7.70
2019-03-23T12:39:11.464Z,7.20
2019-03-23T12:41:41.637Z,8.47
2019-03-23T12:44:11.722Z,7.23
2019-03-23T12:46:48.144Z,7.30
2019-03-23T12:49:13.550Z,7.90
2019-03-23T12:51:43.457Z,7.50
2019-03-23T12:54:13.243Z,7.43
2019-03-23T12:56:43.015Z,7.93
2019-03-23T12:59:12.660Z,8.70
2019-03-23T13:01:42.322Z,9.63
2019-03-23T13:04:12.200Z,10.90
2019-03-23T13:06:41.915Z,9.67
2019-03-23T13:09:11.457Z,9.23
2019-03-23T13:11:41.146Z,9.10
2019-03-23T13:14:11.780Z,10.03
2019-03-23T13:16:41.671Z,9.83
2019-03-23T13:19:11.321Z,10.13
2019-03-23T13:21:41.043Z,10.60
2019-03-23T13:24:10.801Z,10.60
2019-03-23T13:26:41.622Z,11.17
2019-03-23T13:29:11.685Z,9.70
2019-03-23T13:31:41.341Z,9.87
2019-03-23T13:34:11.103Z,9.60
2019-03-23T13:36:41.027Z,9.90
2019-03-23T13:39:11.030Z,9.60
2019-03-23T13:41:50.755Z,9.27
2019-03-23T13:44:20.778Z,9.27
2019-03-23T13:46:50.452Z,9.43
2019-03-23T13:49:20.117Z,9.97
2019-03-23T13:51:50.210Z,9.07
2019-03-23T13:54:20.438Z,9.50
2019-03-23T13:56:50.148Z,8.37
2019-03-23T13:59:19.850Z,8.53
2019-03-23T14:01:49.642Z,9.03
2019-03-23T14:04:19.582Z,8.17
2019-03-23T14:06:49.206Z,8.63
2019-03-23T14:09:18.806Z,8.50
2019-03-23T14:11:54.892Z,8.73
2019-03-23T14:14:19.762Z,8.10
2019-03-23T14:16:49.485Z,7.70
2019-03-23T14:19:19.156Z,9.37
2019-03-23T14:21:48.798Z,12.53
2019-03-23T14:24:18.466Z,9.20
2019-03-23T14:26:48.131Z,9.90
2019-03-23T14:29:17.763Z,11.17
2019-03-23T14:31:47.418Z,11.70
2019-03-23T14:34:17.116Z,10.57
2019-03-23T14:36:47.243Z,14.50
2019-03-23T14:39:17.165Z,13.20
2019-03-23T14:41:47.121Z,9.33
2019-03-23T14:44:17.481Z,13.00
2019-03-23T14:46:47.402Z,8.90
2019-03-23T14:49:17.211Z,10.00
2019-03-23T14:51:46.855Z,8.67
2019-03-23T14:54:17.045Z,9.33
2019-03-23T14:56:46.661Z,9.03
2019-03-23T14:59:16.348Z,11.13
2019-03-23T15:01:45.987Z,12.37
2019-03-23T15:04:15.645Z,14.70
2019-03-23T15:06:45.310Z,22.13
2019-03-23T15:09:15.047Z,18.07
2019-03-23T15:11:44.663Z,17.33
2019-03-23T15:14:14.335Z,16.97
2019-03-23T15:16:43.976Z,16.33
2019-03-23T15:19:15.560Z,16.10
2019-03-23T15:21:44.940Z,12.77
2019-03-23T15:24:14.662Z,19.43
2019-03-23T15:26:44.396Z,15.13
2019-03-23T15:29:14.012Z,11.33
2019-03-23T15:31:43.641Z,14.83
2019-03-23T15:34:13.361Z,11.30
2019-03-23T15:36:43.087Z,13.27
2019-03-23T15:39:12.823Z,14.00
2019-03-23T15:41:42.458Z,10.87
2019-03-23T15:44:12.475Z,13.30
2019-03-23T15:46:42.096Z,10.23
2019-03-23T15:49:11.727Z,9.60
2019-03-23T15:51:41.361Z,11.50
2019-03-23T15:54:11.055Z,14.70
2019-03-23T15:56:40.695Z,12.97
2019-03-23T15:59:10.351Z,13.20
2019-03-23T16:01:40.049Z,13.23
2019-03-23T16:04:09.938Z,14.10
2019-03-23T16:06:39.549Z,14.07
2019-03-23T16:09:28.625Z,15.57
2019-03-23T16:12:17.604Z,18.70
2019-03-23T16:14:47.316Z,14.20
2019-03-23T16:17:17.018Z,12.67
2019-03-23T16:19:46.663Z,18.07
2019-03-23T16:22:16.301Z,13.10
2019-03-23T16:24:46.022Z,14.40
2019-03-23T16:27:15.736Z,11.90
2019-03-23T16:30:06.080Z,11.13
2019-03-23T16:32:36.355Z,12.30
2019-03-23T16:35:07.544Z,12.53
2019-03-23T16:37:37.314Z,12.13
2019-03-23T16:40:10.449Z,12.10
2019-03-23T16:42:45.175Z,12.40
2019-03-23T16:45:11.892Z,13.60
2019-03-23T16:47:44.457Z,12.27
2019-03-23T16:50:14.204Z,13.13
2019-03-23T16:52:43.812Z,8.00
2019-03-23T16:55:13.879Z,9.83
2019-03-23T16:57:43.712Z,10.90
2019-03-23T17:00:15.001Z,10.70
2019-03-23T17:02:44.612Z,12.20
2019-03-23T17:05:14.415Z,9.60
2019-03-23T17:07:44.122Z,9.30
2019-03-23T17:10:13.816Z,8.83
2019-03-23T17:12:43.784Z,12.70
2019-03-23T17:15:13.748Z,9.63
2019-03-23T17:17:43.444Z,10.50
2019-03-23T17:20:13.255Z,11.80
2019-03-23T17:22:42.884Z,10.77
2019-03-23T17:25:12.697Z,15.13
2019-03-23T17:27:42.400Z,8.57
2019-03-23T17:30:31.475Z,1239.93
2019-03-23T17:33:01.115Z,2266.67
2019-03-23T17:35:30.837Z,2266.67
2019-03-23T17:38:00.459Z,1938.67
2019-03-23T17:40:30.462Z,1682.83
2019-03-23T17:43:05.989Z,1511.10
2019-03-23T17:45:32.800Z,1515.37
2019-03-23T17:48:02.430Z,1522.97
2019-03-23T17:50:33.621Z,1478.73
2019-03-23T17:53:03.342Z,1420.23
2019-03-23T17:55:33.125Z,1420.57
2019-03-23T17:58:02.961Z,1364.60
2019-03-23T18:00:32.767Z,1345.97
2019-03-23T18:03:09.070Z,1318.73
2019-03-23T18:05:33.886Z,1274.17
2019-03-23T18:08:03.689Z,1255.63
2019-03-23T18:10:33.760Z,1239.50
2019-03-23T18:13:03.469Z,1188.00
2019-03-23T18:15:34.764Z,1186.87
2019-03-23T18:18:06.660Z,1146.23
2019-03-23T18:20:37.615Z,1097.70
2019-03-23T18:23:07.506Z,1055.93
2019-03-23T18:25:37.265Z,1024.23
2019-03-23T18:28:07.045Z,1013.57
2019-03-23T18:30:41.200Z,1022.10
2019-03-23T18:33:11.488Z,971.07
2019-03-23T18:35:41.691Z,971.60
2019-03-23T18:38:11.524Z,942.93
2019-03-23T18:40:42.919Z,926.10
2019-03-23T18:43:14.220Z,892.67
2019-03-23T18:45:44.055Z,840.23
2019-03-23T18:48:13.904Z,769.93
2019-03-23T18:50:43.747Z,705.67
2019-03-23T18:53:13.545Z,611.50
2019-03-23T18:55:43.271Z,534.53
2019-03-23T18:58:13.275Z,440.13
2019-03-23T19:00:43.653Z,334.43
2019-03-23T19:03:13.712Z,242.40
2019-03-23T19:05:43.494Z,212.10
2019-03-23T19:08:13.383Z,187.40
2019-03-23T19:10:43.111Z,161.37
2019-03-23T19:13:12.979Z,133.43
2019-03-23T19:15:42.739Z,122.37
2019-03-23T19:18:31.823Z,109.30
2019-03-23T19:21:01.559Z,91.60
2019-03-23T19:23:31.258Z,66.20
2019-03-23T19:26:01.040Z,66.77
2019-03-23T19:28:30.671Z,52.87
2019-03-23T19:31:00.418Z,51.50
2019-03-23T19:33:30.061Z,47.97
2019-03-23T19:35:59.833Z,52.43
2019-03-23T19:38:29.524Z,45.10
2019-03-23T19:40:59.287Z,46.30
2019-03-23T19:43:29.566Z,46.57
2019-03-23T19:45:59.796Z,37.10
2019-03-23T19:48:29.499Z,37.40
2019-03-23T19:50:59.618Z,36.97
2019-03-23T19:53:29.309Z,30.07
2019-03-23T19:55:58.964Z,31.90
2019-03-23T19:58:28.591Z,32.07
2019-03-23T20:00:58.227Z,29.37
2019-03-23T20:03:27.844Z,25.93
2019-03-23T20:05:57.516Z,23.67
2019-03-23T20:08:27.146Z,24.33
2019-03-23T20:10:56.793Z,24.77
2019-03-23T20:13:26.486Z,23.73
2019-03-23T20:15:56.147Z,21.73
2019-03-23T20:18:25.853Z,20.50
2019-03-23T20:20:55.494Z,21.70
2019-03-23T20:23:25.414Z,19.77
2019-03-23T20:25:55.091Z,19.20
2019-03-23T20:28:24.807Z,22.27
2019-03-23T20:30:54.513Z,17.20
2019-03-23T20:33:24.232Z,18.50
2019-03-23T20:35:53.974Z,15.47
2019-03-23T20:38:23.981Z,16.93
2019-03-23T20:41:13.005Z,17.67
2019-03-23T20:43:42.642Z,16.50
2019-03-23T20:46:13.231Z,16.10
2019-03-23T20:48:43.039Z,13.70
2019-03-23T20:51:13.127Z,14.17
2019-03-23T20:53:43.211Z,14.10
2019-03-23T20:56:12.881Z,14.27
2019-03-23T20:58:42.528Z,12.63
2019-03-23T21:01:12.175Z,13.30
2019-03-23T21:03:41.825Z,11.80
2019-03-23T21:06:12.604Z,13.20
2019-03-23T21:08:42.919Z,12.63
2019-03-23T21:11:12.940Z,12.30
2019-03-23T21:13:42.593Z,10.73
2019-03-23T21:16:12.253Z,11.77
2019-03-23T21:18:41.853Z,11.50
2019-03-23T21:21:11.514Z,13.77
2019-03-23T21:23:41.116Z,10.00
2019-03-23T21:26:10.972Z,14.77
2019-03-23T21:28:40.607Z,12.43
2019-03-23T21:31:10.279Z,12.63
2019-03-23T21:33:39.902Z,12.80
2019-03-23T21:36:09.604Z,13.40
2019-03-23T21:38:39.401Z,14.53
2019-03-23T21:41:09.007Z,14.27
2019-03-23T21:43:38.715Z,12.93
2019-03-23T21:46:08.401Z,14.70
2019-03-23T21:48:57.402Z,13.40
2019-03-23T21:51:27.444Z,12.90
2019-03-23T21:53:57.102Z,14.20
2019-03-23T21:56:26.708Z,13.63
2019-03-23T21:58:56.469Z,12.70
2019-03-23T22:01:26.098Z,12.73
2019-03-23T22:03:55.759Z,14.33
2019-03-23T22:06:25.666Z,13.23
2019-03-23T22:08:55.303Z,13.03
2019-03-23T22:11:25.081Z,10.90
2019-03-23T22:13:54.835Z,12.83
2019-03-23T22:16:24.517Z,12.40
2019-03-23T22:18:54.219Z,16.90
2019-03-23T22:21:25.395Z,14.90
2019-03-23T22:23:55.185Z,11.03
2019-03-23T22:26:25.827Z,12.47
2019-03-23T22:28:55.466Z,13.00
2019-03-23T22:31:25.145Z,12.53
2019-03-23T22:33:54.909Z,16.03
2019-03-23T22:36:24.561Z,13.50
2019-03-23T22:38:54.250Z,15.97
2019-03-23T22:41:23.901Z,16.10
2019-03-23T22:43:53.586Z,17.93
2019-03-23T22:46:23.263Z,16.17
2019-03-23T22:48:52.890Z,16.43
2019-03-23T22:51:22.843Z,16.83
2019-03-23T22:53:55.191Z,16.60
2019-03-23T22:56:24.070Z,16.47
2019-03-23T22:58:53.793Z,13.63
2019-03-23T23:01:23.982Z,20.33
2019-03-23T23:03:53.822Z,17.37
2019-03-23T23:06:23.296Z,15.40
2019-03-23T23:08:52.878Z,16.93
2019-03-23T23:11:22.513Z,17.47
2019-03-23T23:13:52.575Z,15.07
2019-03-23T23:16:22.592Z,18.60
2019-03-23T23:18:52.339Z,17.07
2019-03-23T23:21:21.966Z,18.00
2019-03-23T23:23:53.286Z,19.73
2019-03-23T23:26:23.005Z,18.17
2019-03-23T23:28:52.694Z,18.60
2019-03-23T23:31:22.793Z,20.97
2019-03-23T23:33:52.502Z,20.03
2019-03-23T23:36:22.212Z,19.20
2019-03-23T23:38:52.633Z,19.13
2019-03-23T23:41:22.544Z,19.80
2019-03-23T23:43:53.350Z,21.10
2019-03-23T23:46:23.113Z,19.13
2019-03-23T23:48:52.735Z,20.07
2019-03-23T23:51:22.522Z,21.27
2019-03-23T23:53:52.240Z,19.93
2019-03-23T23:56:21.879Z,21.33
2019-03-23T23:58:51.512Z,20.73
